Weather at Armada/Hoffler Business Center Heliport

Public forecast

Using degrees Fahrenheit for public forecast. Weather courtesy of forecast.io.

Closest aviation weather report (METAR) to Armada/Hoffler Business Center Heliport

Closest report is Norfolk International Airport, 6.5 nm (12.0 km) N. Retrieved 2020/10/25 06:51 UTC (9 minutes ago):

KORF 250651Z 03013KT 10SM BKN013 OVC024 21/17 A3001 RMK AO2 SLP163 T02060172

Closest aviation forecast (TAF) to Armada/Hoffler Business Center Heliport

Closest forecast is Norfolk International Airport, 6.5 nm (12.0 km) N. Retrieved 2020/10/25 06:00 UTC (1 hour ago):

TAF KORF 250559Z 2506/2606 03008KT P6SM BKN009 OVC035 FM250900 03012G19KT P6SM VCSH BKN009 OVC020 FM251500 04012G19KT P6SM -RA OVC009 FM251800 04012G19KT 4SM -RA BR OVC007 FM260000 03011KT P6SM OVC005